KSAR/SAR METAR and TAF weather

Enter ICAO airport designator
Station Type Date Time Source
KSAR METAR 2020/11/28 20:19 UTC NOAA

KSAR 282019Z AUTO 00000KT 10SM CLR 10/M01 A3022 RMK AO2


Station Type Date Time Source
KSAR Decoded METAR 2020/11/28 20:19 UTC NOAA

Sparta, Sparta Community-Hunter Field Airport, IL, United States (KSAR) 38-08-56N 089-41-55W
Nov 28, 2020 - 03:19 PM EST / 2020.11.28 2019 UTC
Wind: Calm:0
Visibility: 10 mile(s):0
Sky conditions: clear
Temperature: 50 F (10 C)
Dew Point: 30 F (-1 C)
Relative Humidity: 46%
Pressure (altimeter): 30.22 in. Hg (1023 hPa)
ob: KSAR 282019Z AUTO 00000KT 10SM CLR 10/M01 A3022 RMK AO2
cycle: 20

Station Type Date Time Source
KSAR TAF UTC NOAA

Error!

Example: see airport list